sensor_id;sensor_type;location;lat;lon;timestamp;P1;durP1;ratioP1;P2;durP2;ratioP2
41233;SDS011;26968;42.686;23.352;2024-03-08T00:01:09;2.00;;;1.20;;
41233;SDS011;26968;42.686;23.352;2024-03-08T00:03:35;2.97;;;1.42;;
41233;SDS011;26968;42.686;23.352;2024-03-08T00:06:00;2.10;;;1.10;;
41233;SDS011;26968;42.686;23.352;2024-03-08T00:08:26;2.58;;;1.23;;
41233;SDS011;26968;42.686;23.352;2024-03-08T00:10:52;3.17;;;1.42;;
41233;SDS011;26968;42.686;23.352;2024-03-08T00:13:17;3.10;;;1.13;;
41233;SDS011;26968;42.686;23.352;2024-03-08T00:15:43;2.80;;;1.60;;
41233;SDS011;26968;42.686;23.352;2024-03-08T00:18:08;2.50;;;1.45;;
41233;SDS011;26968;42.686;23.352;2024-03-08T00:20:35;2.53;;;1.42;;
41233;SDS011;26968;42.686;23.352;2024-03-08T00:23:00;2.17;;;1.33;;
41233;SDS011;26968;42.686;23.352;2024-03-08T00:25:26;3.00;;;1.88;;
41233;SDS011;26968;42.686;23.352;2024-03-08T00:27:52;1.85;;;1.23;;
41233;SDS011;26968;42.686;23.352;2024-03-08T00:30:21;2.38;;;1.10;;
41233;SDS011;26968;42.686;23.352;2024-03-08T00:32:48;2.50;;;1.17;;
41233;SDS011;26968;42.686;23.352;2024-03-08T00:35:14;2.58;;;1.10;;
41233;SDS011;26968;42.686;23.352;2024-03-08T00:37:40;1.92;;;0.90;;
41233;SDS011;26968;42.686;23.352;2024-03-08T00:40:07;1.70;;;1.00;;
41233;SDS011;26968;42.686;23.352;2024-03-08T00:42:34;3.45;;;1.08;;
41233;SDS011;26968;42.686;23.352;2024-03-08T00:47:26;2.13;;;0.73;;
41233;SDS011;26968;42.686;23.352;2024-03-08T00:49:52;1.27;;;0.90;;
41233;SDS011;26968;42.686;23.352;2024-03-08T00:54:44;1.63;;;1.00;;
41233;SDS011;26968;42.686;23.352;2024-03-08T00:57:10;3.95;;;1.23;;
41233;SDS011;26968;42.686;23.352;2024-03-08T00:59:37;3.85;;;1.13;;
41233;SDS011;26968;42.686;23.352;2024-03-08T01:02:03;2.17;;;1.00;;
41233;SDS011;26968;42.686;23.352;2024-03-08T01:04:29;2.55;;;1.00;;
41233;SDS011;26968;42.686;23.352;2024-03-08T01:06:57;1.38;;;0.70;;
41233;SDS011;26968;42.686;23.352;2024-03-08T01:09:24;1.77;;;1.02;;
41233;SDS011;26968;42.686;23.352;2024-03-08T01:14:15;1.88;;;1.00;;
41233;SDS011;26968;42.686;23.352;2024-03-08T01:16:41;2.10;;;1.33;;
41233;SDS011;26968;42.686;23.352;2024-03-08T01:19:07;2.22;;;1.20;;
41233;SDS011;26968;42.686;23.352;2024-03-08T01:21:32;2.58;;;1.25;;
41233;SDS011;26968;42.686;23.352;2024-03-08T01:23:58;2.78;;;1.58;;
41233;SDS011;26968;42.686;23.352;2024-03-08T01:26:23;2.42;;;1.25;;
41233;SDS011;26968;42.686;23.352;2024-03-08T01:28:49;1.50;;;1.00;;
41233;SDS011;26968;42.686;23.352;2024-03-08T01:31:15;2.78;;;1.20;;
41233;SDS011;26968;42.686;23.352;2024-03-08T01:33:41;2.05;;;1.13;;
41233;SDS011;26968;42.686;23.352;2024-03-08T01:38:32;2.70;;;1.50;;
41233;SDS011;26968;42.686;23.352;2024-03-08T01:43:27;2.28;;;1.20;;
41233;SDS011;26968;42.686;23.352;2024-03-08T01:45:54;2.42;;;1.58;;
41233;SDS011;26968;42.686;23.352;2024-03-08T01:48:22;2.88;;;1.58;;
41233;SDS011;26968;42.686;23.352;2024-03-08T01:50:49;2.78;;;1.58;;
41233;SDS011;26968;42.686;23.352;2024-03-08T01:55:42;2.42;;;1.52;;
41233;SDS011;26968;42.686;23.352;2024-03-08T01:58:13;3.08;;;1.60;;
41233;SDS011;26968;42.686;23.352;2024-03-08T02:00:43;2.67;;;1.50;;
41233;SDS011;26968;42.686;23.352;2024-03-08T02:03:10;3.17;;;1.40;;
41233;SDS011;26968;42.686;23.352;2024-03-08T02:05:36;2.72;;;1.83;;
41233;SDS011;26968;42.686;23.352;2024-03-08T02:08:03;2.30;;;1.20;;
41233;SDS011;26968;42.686;23.352;2024-03-08T02:10:32;2.55;;;1.70;;
41233;SDS011;26968;42.686;23.352;2024-03-08T02:12:59;2.83;;;1.73;;
41233;SDS011;26968;42.686;23.352;2024-03-08T02:15:50;2.20;;;1.52;;
41233;SDS011;26968;42.686;23.352;2024-03-08T02:18:16;2.47;;;1.63;;
41233;SDS011;26968;42.686;23.352;2024-03-08T02:20:49;2.33;;;1.20;;
41233;SDS011;26968;42.686;23.352;2024-03-08T02:23:15;2.33;;;1.30;;
41233;SDS011;26968;42.686;23.352;2024-03-08T02:25:40;1.27;;;0.90;;
41233;SDS011;26968;42.686;23.352;2024-03-08T02:28:08;2.80;;;1.52;;
41233;SDS011;26968;42.686;23.352;2024-03-08T02:30:36;2.30;;;1.65;;
41233;SDS011;26968;42.686;23.352;2024-03-08T02:33:01;2.72;;;1.80;;
41233;SDS011;26968;42.686;23.352;2024-03-08T02:35:27;3.67;;;1.88;;
41233;SDS011;26968;42.686;23.352;2024-03-08T02:37:53;4.82;;;1.80;;
41233;SDS011;26968;42.686;23.352;2024-03-08T02:40:18;2.25;;;1.35;;
41233;SDS011;26968;42.686;23.352;2024-03-08T02:42:44;2.13;;;1.35;;
41233;SDS011;26968;42.686;23.352;2024-03-08T02:45:09;1.95;;;1.25;;
41233;SDS011;26968;42.686;23.352;2024-03-08T02:47:35;1.30;;;0.90;;
41233;SDS011;26968;42.686;23.352;2024-03-08T02:50:01;1.70;;;1.00;;
41233;SDS011;26968;42.686;23.352;2024-03-08T02:52:26;1.38;;;0.98;;
41233;SDS011;26968;42.686;23.352;2024-03-08T02:54:52;2.45;;;1.10;;
41233;SDS011;26968;42.686;23.352;2024-03-08T02:57:18;1.20;;;0.63;;
41233;SDS011;26968;42.686;23.352;2024-03-08T02:59:43;1.23;;;0.60;;
41233;SDS011;26968;42.686;23.352;2024-03-08T03:02:11;1.42;;;0.90;;
41233;SDS011;26968;42.686;23.352;2024-03-08T03:04:39;1.67;;;0.82;;
41233;SDS011;26968;42.686;23.352;2024-03-08T03:07:05;1.63;;;0.85;;
41233;SDS011;26968;42.686;23.352;2024-03-08T03:09:30;1.20;;;0.70;;
41233;SDS011;26968;42.686;23.352;2024-03-08T03:11:58;1.52;;;0.73;;
41233;SDS011;26968;42.686;23.352;2024-03-08T03:14:24;1.77;;;0.70;;
41233;SDS011;26968;42.686;23.352;2024-03-08T03:16:51;2.05;;;0.82;;
41233;SDS011;26968;42.686;23.352;2024-03-08T03:19:17;1.10;;;0.63;;
41233;SDS011;26968;42.686;23.352;2024-03-08T03:21:43;2.30;;;0.88;;
41233;SDS011;26968;42.686;23.352;2024-03-08T03:24:08;1.38;;;0.80;;
41233;SDS011;26968;42.686;23.352;2024-03-08T03:26:38;1.88;;;0.90;;
41233;SDS011;26968;42.686;23.352;2024-03-08T03:29:07;1.55;;;0.85;;
41233;SDS011;26968;42.686;23.352;2024-03-08T03:31:36;0.88;;;0.80;;
41233;SDS011;26968;42.686;23.352;2024-03-08T03:34:01;1.88;;;0.80;;
41233;SDS011;26968;42.686;23.352;2024-03-08T03:36:29;0.95;;;0.73;;
41233;SDS011;26968;42.686;23.352;2024-03-08T03:38:55;2.60;;;1.05;;
41233;SDS011;26968;42.686;23.352;2024-03-08T03:41:35;2.17;;;1.02;;
41233;SDS011;26968;42.686;23.352;2024-03-08T03:44:01;4.18;;;1.10;;
41233;SDS011;26968;42.686;23.352;2024-03-08T03:46:27;1.83;;;0.90;;
41233;SDS011;26968;42.686;23.352;2024-03-08T03:48:53;2.13;;;1.05;;
41233;SDS011;26968;42.686;23.352;2024-03-08T03:51:20;1.23;;;0.85;;
41233;SDS011;26968;42.686;23.352;2024-03-08T03:53:46;1.48;;;0.93;;
41233;SDS011;26968;42.686;23.352;2024-03-08T03:56:12;1.35;;;0.70;;
41233;SDS011;26968;42.686;23.352;2024-03-08T03:58:37;3.63;;;1.15;;
41233;SDS011;26968;42.686;23.352;2024-03-08T04:01:05;1.95;;;0.98;;
41233;SDS011;26968;42.686;23.352;2024-03-08T04:03:30;2.78;;;1.08;;
41233;SDS011;26968;42.686;23.352;2024-03-08T04:05:56;1.35;;;0.90;;
41233;SDS011;26968;42.686;23.352;2024-03-08T04:08:22;1.25;;;1.00;;
41233;SDS011;26968;42.686;23.352;2024-03-08T04:10:49;2.70;;;1.17;;
41233;SDS011;26968;42.686;23.352;2024-03-08T04:13:16;2.22;;;1.13;;
41233;SDS011;26968;42.686;23.352;2024-03-08T04:15:41;2.10;;;1.10;;
41233;SDS011;26968;42.686;23.352;2024-03-08T04:18:09;2.90;;;1.10;;
41233;SDS011;26968;42.686;23.352;2024-03-08T04:20:35;2.90;;;1.40;;
41233;SDS011;26968;42.686;23.352;2024-03-08T04:23:01;2.30;;;1.50;;
41233;SDS011;26968;42.686;23.352;2024-03-08T04:25:27;2.00;;;1.02;;
41233;SDS011;26968;42.686;23.352;2024-03-08T04:27:53;3.15;;;1.27;;
41233;SDS011;26968;42.686;23.352;2024-03-08T04:30:18;1.55;;;1.25;;
41233;SDS011;26968;42.686;23.352;2024-03-08T04:32:46;3.35;;;1.38;;
41233;SDS011;26968;42.686;23.352;2024-03-08T04:37:37;2.33;;;1.42;;
41233;SDS011;26968;42.686;23.352;2024-03-08T04:40:03;3.17;;;1.70;;
41233;SDS011;26968;42.686;23.352;2024-03-08T04:42:29;2.28;;;1.55;;
41233;SDS011;26968;42.686;23.352;2024-03-08T04:44:57;4.63;;;2.22;;
41233;SDS011;26968;42.686;23.352;2024-03-08T04:47:23;4.20;;;2.10;;
41233;SDS011;26968;42.686;23.352;2024-03-08T04:49:49;4.47;;;2.08;;
41233;SDS011;26968;42.686;23.352;2024-03-08T04:52:15;2.92;;;1.77;;
41233;SDS011;26968;42.686;23.352;2024-03-08T04:54:41;5.43;;;2.35;;
41233;SDS011;26968;42.686;23.352;2024-03-08T04:57:07;3.20;;;1.75;;
41233;SDS011;26968;42.686;23.352;2024-03-08T04:59:32;2.72;;;1.92;;
41233;SDS011;26968;42.686;23.352;2024-03-08T05:01:58;3.13;;;2.05;;
41233;SDS011;26968;42.686;23.352;2024-03-08T05:04:24;3.92;;;2.10;;
41233;SDS011;26968;42.686;23.352;2024-03-08T05:06:49;2.60;;;1.65;;
41233;SDS011;26968;42.686;23.352;2024-03-08T05:09:15;3.13;;;2.03;;
41233;SDS011;26968;42.686;23.352;2024-03-08T05:11:41;4.15;;;2.05;;
41233;SDS011;26968;42.686;23.352;2024-03-08T05:14:10;5.05;;;2.67;;
41233;SDS011;26968;42.686;23.352;2024-03-08T05:16:44;4.15;;;2.60;;
41233;SDS011;26968;42.686;23.352;2024-03-08T05:19:13;4.57;;;2.60;;
41233;SDS011;26968;42.686;23.352;2024-03-08T05:21:45;6.35;;;2.97;;
41233;SDS011;26968;42.686;23.352;2024-03-08T05:24:12;5.75;;;1.95;;
41233;SDS011;26968;42.686;23.352;2024-03-08T05:26:39;5.28;;;2.50;;
41233;SDS011;26968;42.686;23.352;2024-03-08T05:29:05;4.50;;;2.60;;
41233;SDS011;26968;42.686;23.352;2024-03-08T05:31:32;5.10;;;2.78;;
41233;SDS011;26968;42.686;23.352;2024-03-08T05:34:08;3.72;;;2.35;;
41233;SDS011;26968;42.686;23.352;2024-03-08T05:36:35;4.75;;;2.75;;
41233;SDS011;26968;42.686;23.352;2024-03-08T05:39:00;7.25;;;2.33;;
41233;SDS011;26968;42.686;23.352;2024-03-08T05:41:26;6.03;;;2.65;;
41233;SDS011;26968;42.686;23.352;2024-03-08T05:43:51;5.93;;;3.13;;
41233;SDS011;26968;42.686;23.352;2024-03-08T05:46:17;6.72;;;3.10;;
41233;SDS011;26968;42.686;23.352;2024-03-08T05:48:43;5.80;;;2.95;;
41233;SDS011;26968;42.686;23.352;2024-03-08T05:51:09;6.47;;;3.20;;
41233;SDS011;26968;42.686;23.352;2024-03-08T05:53:35;5.15;;;2.95;;
41233;SDS011;26968;42.686;23.352;2024-03-08T05:56:00;6.32;;;3.15;;
41233;SDS011;26968;42.686;23.352;2024-03-08T05:58:27;8.35;;;4.07;;
41233;SDS011;26968;42.686;23.352;2024-03-08T06:00:55;7.43;;;4.05;;
41233;SDS011;26968;42.686;23.352;2024-03-08T06:03:21;10.07;;;4.88;;
41233;SDS011;26968;42.686;23.352;2024-03-08T06:05:48;8.90;;;3.83;;
41233;SDS011;26968;42.686;23.352;2024-03-08T06:08:15;7.13;;;4.13;;
41233;SDS011;26968;42.686;23.352;2024-03-08T06:10:41;7.95;;;4.18;;
41233;SDS011;26968;42.686;23.352;2024-03-08T06:13:07;8.93;;;3.40;;
41233;SDS011;26968;42.686;23.352;2024-03-08T06:15:32;7.68;;;3.78;;
41233;SDS011;26968;42.686;23.352;2024-03-08T06:17:59;6.55;;;3.50;;
41233;SDS011;26968;42.686;23.352;2024-03-08T06:20:25;6.97;;;3.50;;
41233;SDS011;26968;42.686;23.352;2024-03-08T06:22:51;14.18;;;4.47;;
41233;SDS011;26968;42.686;23.352;2024-03-08T06:25:17;11.65;;;4.07;;
41233;SDS011;26968;42.686;23.352;2024-03-08T06:27:43;10.32;;;4.05;;
41233;SDS011;26968;42.686;23.352;2024-03-08T06:30:09;8.77;;;3.60;;
41233;SDS011;26968;42.686;23.352;2024-03-08T06:32:36;23.98;;;6.00;;
41233;SDS011;26968;42.686;23.352;2024-03-08T06:35:02;8.20;;;3.55;;
41233;SDS011;26968;42.686;23.352;2024-03-08T06:37:31;6.78;;;3.70;;
41233;SDS011;26968;42.686;23.352;2024-03-08T06:40:00;6.75;;;3.97;;
41233;SDS011;26968;42.686;23.352;2024-03-08T06:42:26;7.53;;;3.80;;
41233;SDS011;26968;42.686;23.352;2024-03-08T06:44:53;8.32;;;4.22;;
41233;SDS011;26968;42.686;23.352;2024-03-08T06:47:21;8.10;;;4.07;;
41233;SDS011;26968;42.686;23.352;2024-03-08T06:49:46;9.55;;;3.65;;
41233;SDS011;26968;42.686;23.352;2024-03-08T06:52:12;8.35;;;3.50;;
41233;SDS011;26968;42.686;23.352;2024-03-08T06:54:37;7.80;;;3.67;;
41233;SDS011;26968;42.686;23.352;2024-03-08T06:57:05;6.43;;;3.60;;
41233;SDS011;26968;42.686;23.352;2024-03-08T06:59:32;6.63;;;3.40;;
41233;SDS011;26968;42.686;23.352;2024-03-08T07:01:57;7.53;;;3.53;;
41233;SDS011;26968;42.686;23.352;2024-03-08T07:04:24;8.30;;;3.72;;
41233;SDS011;26968;42.686;23.352;2024-03-08T07:06:53;9.88;;;4.22;;
41233;SDS011;26968;42.686;23.352;2024-03-08T07:09:19;8.23;;;3.95;;
41233;SDS011;26968;42.686;23.352;2024-03-08T07:11:44;33.17;;;9.18;;
41233;SDS011;26968;42.686;23.352;2024-03-08T07:14:11;12.68;;;4.80;;
41233;SDS011;26968;42.686;23.352;2024-03-08T07:16:40;6.07;;;3.58;;
41233;SDS011;26968;42.686;23.352;2024-03-08T07:19:06;5.07;;;3.13;;
41233;SDS011;26968;42.686;23.352;2024-03-08T07:21:32;6.72;;;4.07;;
41233;SDS011;26968;42.686;23.352;2024-03-08T07:23:57;7.85;;;4.57;;
41233;SDS011;26968;42.686;23.352;2024-03-08T07:26:28;17.90;;;9.35;;
41233;SDS011;26968;42.686;23.352;2024-03-08T07:28:55;25.10;;;12.63;;
41233;SDS011;26968;42.686;23.352;2024-03-08T07:31:21;13.75;;;7.55;;
41233;SDS011;26968;42.686;23.352;2024-03-08T07:34:02;9.07;;;4.10;;
41233;SDS011;26968;42.686;23.352;2024-03-08T07:38:53;12.98;;;4.80;;
41233;SDS011;26968;42.686;23.352;2024-03-08T07:41:19;9.45;;;4.22;;
41233;SDS011;26968;42.686;23.352;2024-03-08T07:43:45;9.82;;;3.92;;
41233;SDS011;26968;42.686;23.352;2024-03-08T07:46:10;18.33;;;4.50;;
41233;SDS011;26968;42.686;23.352;2024-03-08T07:51:02;11.95;;;4.30;;
41233;SDS011;26968;42.686;23.352;2024-03-08T07:53:30;7.15;;;3.45;;
41233;SDS011;26968;42.686;23.352;2024-03-08T07:55:56;12.35;;;3.78;;
41233;SDS011;26968;42.686;23.352;2024-03-08T07:58:21;9.20;;;3.70;;
41233;SDS011;26968;42.686;23.352;2024-03-08T08:00:47;10.00;;;4.30;;
41233;SDS011;26968;42.686;23.352;2024-03-08T08:03:12;9.15;;;3.83;;
41233;SDS011;26968;42.686;23.352;2024-03-08T08:05:38;6.95;;;3.80;;
41233;SDS011;26968;42.686;23.352;2024-03-08T08:08:07;7.05;;;3.00;;
41233;SDS011;26968;42.686;23.352;2024-03-08T08:10:33;12.80;;;3.72;;
41233;SDS011;26968;42.686;23.352;2024-03-08T08:12:58;10.98;;;2.90;;
41233;SDS011;26968;42.686;23.352;2024-03-08T08:15:24;5.82;;;2.90;;
41233;SDS011;26968;42.686;23.352;2024-03-08T08:17:49;9.05;;;2.90;;
41233;SDS011;26968;42.686;23.352;2024-03-08T08:20:16;16.77;;;4.47;;
41233;SDS011;26968;42.686;23.352;2024-03-08T08:22:43;5.95;;;2.75;;
41233;SDS011;26968;42.686;23.352;2024-03-08T08:25:09;4.13;;;2.05;;
41233;SDS011;26968;42.686;23.352;2024-03-08T08:27:38;3.95;;;1.60;;
41233;SDS011;26968;42.686;23.352;2024-03-08T08:30:05;4.97;;;2.40;;
41233;SDS011;26968;42.686;23.352;2024-03-08T08:32:36;4.15;;;2.58;;
41233;SDS011;26968;42.686;23.352;2024-03-08T08:35:05;6.13;;;2.50;;
41233;SDS011;26968;42.686;23.352;2024-03-08T08:37:38;11.55;;;4.40;;
41233;SDS011;26968;42.686;23.352;2024-03-08T08:40:04;5.25;;;2.60;;
41233;SDS011;26968;42.686;23.352;2024-03-08T08:42:39;5.18;;;3.25;;
41233;SDS011;26968;42.686;23.352;2024-03-08T08:45:05;6.38;;;2.53;;
41233;SDS011;26968;42.686;23.352;2024-03-08T08:47:37;4.70;;;2.50;;
41233;SDS011;26968;42.686;23.352;2024-03-08T08:50:03;4.38;;;1.95;;
41233;SDS011;26968;42.686;23.352;2024-03-08T08:52:30;4.32;;;2.00;;
41233;SDS011;26968;42.686;23.352;2024-03-08T08:54:56;8.35;;;2.38;;
41233;SDS011;26968;42.686;23.352;2024-03-08T08:57:22;4.50;;;2.20;;
41233;SDS011;26968;42.686;23.352;2024-03-08T08:59:47;5.22;;;2.63;;
41233;SDS011;26968;42.686;23.352;2024-03-08T09:02:13;3.30;;;1.73;;
41233;SDS011;26968;42.686;23.352;2024-03-08T09:04:39;6.53;;;2.55;;
41233;SDS011;26968;42.686;23.352;2024-03-08T09:07:04;6.45;;;2.00;;
41233;SDS011;26968;42.686;23.352;2024-03-08T09:09:31;9.05;;;2.40;;
41233;SDS011;26968;42.686;23.352;2024-03-08T09:11:57;4.47;;;2.25;;
41233;SDS011;26968;42.686;23.352;2024-03-08T09:16:49;5.28;;;2.25;;
41233;SDS011;26968;42.686;23.352;2024-03-08T09:21:40;10.38;;;2.38;;
41233;SDS011;26968;42.686;23.352;2024-03-08T09:26:32;3.80;;;2.25;;
41233;SDS011;26968;42.686;23.352;2024-03-08T09:28:59;6.05;;;2.38;;
41233;SDS011;26968;42.686;23.352;2024-03-08T09:31:24;15.40;;;3.05;;
41233;SDS011;26968;42.686;23.352;2024-03-08T09:33:51;5.80;;;2.85;;
41233;SDS011;26968;42.686;23.352;2024-03-08T09:36:16;4.57;;;2.38;;
41233;SDS011;26968;42.686;23.352;2024-03-08T09:41:07;4.30;;;1.83;;
41233;SDS011;26968;42.686;23.352;2024-03-08T09:43:35;6.28;;;2.33;;
41233;SDS011;26968;42.686;23.352;2024-03-08T09:48:26;3.33;;;2.17;;
41233;SDS011;26968;42.686;23.352;2024-03-08T09:53:19;2.08;;;1.35;;
41233;SDS011;26968;42.686;23.352;2024-03-08T09:58:13;2.30;;;1.40;;
41233;SDS011;26968;42.686;23.352;2024-03-08T10:00:58;4.75;;;1.55;;
41233;SDS011;26968;42.686;23.352;2024-03-08T10:03:26;11.18;;;2.33;;
41233;SDS011;26968;42.686;23.352;2024-03-08T10:08:21;4.32;;;1.65;;
41233;SDS011;26968;42.686;23.352;2024-03-08T10:13:12;4.35;;;1.88;;
41233;SDS011;26968;42.686;23.352;2024-03-08T10:15:39;4.47;;;2.20;;
41233;SDS011;26968;42.686;23.352;2024-03-08T10:18:06;4.32;;;1.90;;
41233;SDS011;26968;42.686;23.352;2024-03-08T10:20:32;4.38;;;1.60;;
41233;SDS011;26968;42.686;23.352;2024-03-08T10:25:31;3.25;;;1.63;;
41233;SDS011;26968;42.686;23.352;2024-03-08T10:27:59;2.70;;;1.50;;
41233;SDS011;26968;42.686;23.352;2024-03-08T10:30:24;5.85;;;1.58;;
41233;SDS011;26968;42.686;23.352;2024-03-08T10:32:50;2.95;;;1.55;;
41233;SDS011;26968;42.686;23.352;2024-03-08T10:35:16;8.68;;;1.95;;
41233;SDS011;26968;42.686;23.352;2024-03-08T10:37:49;2.53;;;1.50;;
41233;SDS011;26968;42.686;23.352;2024-03-08T10:40:30;4.18;;;1.33;;
41233;SDS011;26968;42.686;23.352;2024-03-08T10:42:58;5.07;;;2.08;;
41233;SDS011;26968;42.686;23.352;2024-03-08T10:45:37;4.40;;;1.95;;
41233;SDS011;26968;42.686;23.352;2024-03-08T10:50:41;2.85;;;1.95;;
41233;SDS011;26968;42.686;23.352;2024-03-08T10:53:10;5.13;;;1.70;;
41233;SDS011;26968;42.686;23.352;2024-03-08T10:55:39;5.55;;;1.92;;
41233;SDS011;26968;42.686;23.352;2024-03-08T10:58:06;1.73;;;1.00;;
41233;SDS011;26968;42.686;23.352;2024-03-08T11:00:36;3.22;;;1.20;;
41233;SDS011;26968;42.686;23.352;2024-03-08T11:03:02;2.22;;;1.45;;
41233;SDS011;26968;42.686;23.352;2024-03-08T11:10:53;3.63;;;1.63;;
41233;SDS011;26968;42.686;23.352;2024-03-08T11:13:36;2.70;;;1.33;;
41233;SDS011;26968;42.686;23.352;2024-03-08T11:16:48;6.63;;;1.50;;
41233;SDS011;26968;42.686;23.352;2024-03-08T11:19:01;3.60;;;1.20;;
41233;SDS011;26968;42.686;23.352;2024-03-08T11:21:31;7.05;;;1.55;;
41233;SDS011;26968;42.686;23.352;2024-03-08T11:24:07;2.58;;;1.05;;
41233;SDS011;26968;42.686;23.352;2024-03-08T11:26:42;3.38;;;1.00;;
41233;SDS011;26968;42.686;23.352;2024-03-08T11:29:32;3.78;;;1.23;;
41233;SDS011;26968;42.686;23.352;2024-03-08T11:32:12;1.95;;;1.00;;
41233;SDS011;26968;42.686;23.352;2024-03-08T11:34:45;6.10;;;1.00;;
41233;SDS011;26968;42.686;23.352;2024-03-08T11:37:13;3.58;;;1.45;;
41233;SDS011;26968;42.686;23.352;2024-03-08T11:39:40;1.48;;;1.05;;
41233;SDS011;26968;42.686;23.352;2024-03-08T11:42:11;3.03;;;1.15;;
41233;SDS011;26968;42.686;23.352;2024-03-08T11:44:37;1.73;;;0.95;;
41233;SDS011;26968;42.686;23.352;2024-03-08T11:47:08;6.43;;;1.50;;
41233;SDS011;26968;42.686;23.352;2024-03-08T11:49:35;2.35;;;1.00;;
41233;SDS011;26968;42.686;23.352;2024-03-08T11:52:01;1.80;;;1.08;;
41233;SDS011;26968;42.686;23.352;2024-03-08T11:54:27;1.90;;;0.82;;
41233;SDS011;26968;42.686;23.352;2024-03-08T11:56:55;5.63;;;1.23;;
41233;SDS011;26968;42.686;23.352;2024-03-08T11:59:28;3.17;;;1.02;;
41233;SDS011;26968;42.686;23.352;2024-03-08T12:01:58;5.75;;;2.00;;
41233;SDS011;26968;42.686;23.352;2024-03-08T12:04:31;7.85;;;2.08;;
41233;SDS011;26968;42.686;23.352;2024-03-08T12:07:00;3.30;;;1.00;;
41233;SDS011;26968;42.686;23.352;2024-03-08T12:09:27;2.33;;;1.00;;
41233;SDS011;26968;42.686;23.352;2024-03-08T12:11:53;1.38;;;1.00;;
41233;SDS011;26968;42.686;23.352;2024-03-08T12:14:18;2.13;;;1.27;;
41233;SDS011;26968;42.686;23.352;2024-03-08T12:16:44;6.03;;;1.77;;
41233;SDS011;26968;42.686;23.352;2024-03-08T12:19:09;3.58;;;0.95;;
41233;SDS011;26968;42.686;23.352;2024-03-08T12:21:35;3.28;;;0.75;;
41233;SDS011;26968;42.686;23.352;2024-03-08T12:24:02;2.85;;;1.50;;
41233;SDS011;26968;42.686;23.352;2024-03-08T12:26:28;3.28;;;1.50;;
41233;SDS011;26968;42.686;23.352;2024-03-08T12:28:53;4.18;;;1.30;;
41233;SDS011;26968;42.686;23.352;2024-03-08T12:31:19;3.40;;;1.08;;
41233;SDS011;26968;42.686;23.352;2024-03-08T12:33:55;6.50;;;1.90;;
41233;SDS011;26968;42.686;23.352;2024-03-08T12:36:24;3.08;;;1.20;;
41233;SDS011;26968;42.686;23.352;2024-03-08T12:38:50;3.90;;;1.48;;
41233;SDS011;26968;42.686;23.352;2024-03-08T12:43:43;6.22;;;1.58;;
41233;SDS011;26968;42.686;23.352;2024-03-08T12:46:15;4.72;;;1.35;;
41233;SDS011;26968;42.686;23.352;2024-03-08T12:48:41;5.20;;;1.38;;
41233;SDS011;26968;42.686;23.352;2024-03-08T12:51:12;4.28;;;1.45;;
41233;SDS011;26968;42.686;23.352;2024-03-08T12:53:47;5.50;;;1.17;;
41233;SDS011;26968;42.686;23.352;2024-03-08T12:56:13;4.50;;;1.38;;
41233;SDS011;26968;42.686;23.352;2024-03-08T12:58:42;3.55;;;1.33;;
41233;SDS011;26968;42.686;23.352;2024-03-08T13:01:08;5.60;;;1.08;;
41233;SDS011;26968;42.686;23.352;2024-03-08T13:03:34;1.88;;;0.93;;
41233;SDS011;26968;42.686;23.352;2024-03-08T13:06:03;4.40;;;1.77;;
41233;SDS011;26968;42.686;23.352;2024-03-08T13:08:34;3.33;;;1.35;;
41233;SDS011;26968;42.686;23.352;2024-03-08T13:11:06;2.05;;;1.00;;
41233;SDS011;26968;42.686;23.352;2024-03-08T13:13:37;2.25;;;0.80;;
41233;SDS011;26968;42.686;23.352;2024-03-08T13:16:05;4.68;;;0.90;;
41233;SDS011;26968;42.686;23.352;2024-03-08T13:18:34;4.95;;;1.45;;
41233;SDS011;26968;42.686;23.352;2024-03-08T13:21:00;2.20;;;1.10;;
41233;SDS011;26968;42.686;23.352;2024-03-08T13:23:30;3.88;;;1.30;;
41233;SDS011;26968;42.686;23.352;2024-03-08T13:25:56;3.53;;;1.10;;
41233;SDS011;26968;42.686;23.352;2024-03-08T13:28:22;2.05;;;1.40;;
41233;SDS011;26968;42.686;23.352;2024-03-08T13:30:53;4.28;;;1.42;;
41233;SDS011;26968;42.686;23.352;2024-03-08T13:33:18;3.53;;;1.30;;
41233;SDS011;26968;42.686;23.352;2024-03-08T13:35:45;3.50;;;1.10;;
41233;SDS011;26968;42.686;23.352;2024-03-08T13:38:11;5.43;;;1.52;;
41233;SDS011;26968;42.686;23.352;2024-03-08T13:40:38;2.33;;;1.30;;
41233;SDS011;26968;42.686;23.352;2024-03-08T13:43:05;7.13;;;1.60;;
41233;SDS011;26968;42.686;23.352;2024-03-08T13:45:33;4.85;;;1.52;;
41233;SDS011;26968;42.686;23.352;2024-03-08T13:48:03;1.17;;;0.88;;
41233;SDS011;26968;42.686;23.352;2024-03-08T13:50:32;7.10;;;1.35;;
41233;SDS011;26968;42.686;23.352;2024-03-08T13:53:00;2.55;;;1.60;;
41233;SDS011;26968;42.686;23.352;2024-03-08T13:55:25;3.55;;;1.50;;
41233;SDS011;26968;42.686;23.352;2024-03-08T13:57:51;2.60;;;1.10;;
41233;SDS011;26968;42.686;23.352;2024-03-08T14:00:18;3.70;;;1.70;;
41233;SDS011;26968;42.686;23.352;2024-03-08T14:02:52;3.85;;;1.88;;
41233;SDS011;26968;42.686;23.352;2024-03-08T14:05:19;12.05;;;2.10;;
41233;SDS011;26968;42.686;23.352;2024-03-08T14:07:46;7.50;;;1.50;;
41233;SDS011;26968;42.686;23.352;2024-03-08T14:10:14;3.53;;;1.30;;
41233;SDS011;26968;42.686;23.352;2024-03-08T14:12:40;7.72;;;2.92;;
41233;SDS011;26968;42.686;23.352;2024-03-08T14:15:09;10.30;;;2.10;;
41233;SDS011;26968;42.686;23.352;2024-03-08T14:17:36;4.55;;;1.50;;
41233;SDS011;26968;42.686;23.352;2024-03-08T14:20:02;4.03;;;2.00;;
41233;SDS011;26968;42.686;23.352;2024-03-08T14:22:29;5.78;;;2.42;;
41233;SDS011;26968;42.686;23.352;2024-03-08T14:24:56;3.15;;;1.52;;
41233;SDS011;26968;42.686;23.352;2024-03-08T14:27:22;3.67;;;1.63;;
41233;SDS011;26968;42.686;23.352;2024-03-08T14:29:47;6.07;;;1.90;;
41233;SDS011;26968;42.686;23.352;2024-03-08T14:32:13;7.25;;;2.53;;
41233;SDS011;26968;42.686;23.352;2024-03-08T14:34:39;5.57;;;2.05;;
41233;SDS011;26968;42.686;23.352;2024-03-08T14:37:05;4.55;;;1.77;;
41233;SDS011;26968;42.686;23.352;2024-03-08T14:39:36;8.15;;;1.95;;
41233;SDS011;26968;42.686;23.352;2024-03-08T14:42:02;4.63;;;2.00;;
41233;SDS011;26968;42.686;23.352;2024-03-08T14:44:28;3.78;;;1.70;;
41233;SDS011;26968;42.686;23.352;2024-03-08T14:46:58;5.75;;;1.80;;
41233;SDS011;26968;42.686;23.352;2024-03-08T14:49:24;5.18;;;3.10;;
41233;SDS011;26968;42.686;23.352;2024-03-08T14:51:55;3.13;;;2.03;;
41233;SDS011;26968;42.686;23.352;2024-03-08T14:54:23;5.10;;;1.98;;
41233;SDS011;26968;42.686;23.352;2024-03-08T14:56:49;5.13;;;2.45;;
41233;SDS011;26968;42.686;23.352;2024-03-08T14:59:17;9.68;;;2.58;;
41233;SDS011;26968;42.686;23.352;2024-03-08T15:01:44;5.82;;;2.47;;
41233;SDS011;26968;42.686;23.352;2024-03-08T15:04:10;5.78;;;2.67;;
41233;SDS011;26968;42.686;23.352;2024-03-08T15:09:03;5.55;;;2.47;;
41233;SDS011;26968;42.686;23.352;2024-03-08T15:11:40;6.95;;;2.25;;
41233;SDS011;26968;42.686;23.352;2024-03-08T15:14:07;8.05;;;3.28;;
41233;SDS011;26968;42.686;23.352;2024-03-08T15:16:36;6.93;;;3.38;;
41233;SDS011;26968;42.686;23.352;2024-03-08T15:19:02;3.65;;;1.80;;
41233;SDS011;26968;42.686;23.352;2024-03-08T15:21:31;14.13;;;3.83;;
41233;SDS011;26968;42.686;23.352;2024-03-08T15:26:23;3.95;;;2.45;;
41233;SDS011;26968;42.686;23.352;2024-03-08T15:28:50;6.57;;;2.92;;
41233;SDS011;26968;42.686;23.352;2024-03-08T15:33:44;4.88;;;2.65;;
41233;SDS011;26968;42.686;23.352;2024-03-08T15:36:18;6.13;;;3.00;;
41233;SDS011;26968;42.686;23.352;2024-03-08T15:38:46;6.95;;;2.70;;